sensor_id;sensor_type;location;lat;lon;timestamp;temperature;humidity
439;DHT22;206;48.782;9.252;2023-04-03T00:00:57;5.90;36.40
439;DHT22;206;48.782;9.252;2023-04-03T00:03:23;5.90;36.40
439;DHT22;206;48.782;9.252;2023-04-03T00:05:48;5.90;36.50
439;DHT22;206;48.782;9.252;2023-04-03T00:08:14;5.90;36.40
439;DHT22;206;48.782;9.252;2023-04-03T00:10:40;5.90;36.10
439;DHT22;206;48.782;9.252;2023-04-03T00:13:07;5.90;36.20
439;DHT22;206;48.782;9.252;2023-04-03T00:15:33;5.90;35.70
439;DHT22;206;48.782;9.252;2023-04-03T00:18:00;5.90;36.40
439;DHT22;206;48.782;9.252;2023-04-03T00:20:25;5.80;36.10
439;DHT22;206;48.782;9.252;2023-04-03T00:22:53;5.90;36.30
439;DHT22;206;48.782;9.252;2023-04-03T00:25:18;5.80;36.10
439;DHT22;206;48.782;9.252;2023-04-03T00:27:44;5.80;36.30
439;DHT22;206;48.782;9.252;2023-04-03T00:30:14;5.80;36.30
439;DHT22;206;48.782;9.252;2023-04-03T00:32:40;5.90;36.40
439;DHT22;206;48.782;9.252;2023-04-03T00:35:06;6.00;36.50
439;DHT22;206;48.782;9.252;2023-04-03T00:37:32;6.10;35.90
439;DHT22;206;48.782;9.252;2023-04-03T00:39:58;6.10;36.00
439;DHT22;206;48.782;9.252;2023-04-03T00:42:23;6.20;35.20
439;DHT22;206;48.782;9.252;2023-04-03T00:47:18;6.20;35.40
439;DHT22;206;48.782;9.252;2023-04-03T00:49:45;6.10;35.60
439;DHT22;206;48.782;9.252;2023-04-03T00:52:14;6.10;35.60
439;DHT22;206;48.782;9.252;2023-04-03T00:54:42;6.20;35.80
439;DHT22;206;48.782;9.252;2023-04-03T00:57:10;6.30;35.60
439;DHT22;206;48.782;9.252;2023-04-03T00:59:39;6.40;35.00
439;DHT22;206;48.782;9.252;2023-04-03T01:02:06;6.50;34.30
439;DHT22;206;48.782;9.252;2023-04-03T01:04:34;6.50;33.80
439;DHT22;206;48.782;9.252;2023-04-03T01:07:04;6.50;34.30
439;DHT22;206;48.782;9.252;2023-04-03T01:09:32;6.50;33.60
439;DHT22;206;48.782;9.252;2023-04-03T01:12:15;6.50;33.30
439;DHT22;206;48.782;9.252;2023-04-03T01:14:42;6.60;33.60
439;DHT22;206;48.782;9.252;2023-04-03T01:20:07;6.40;33.60
439;DHT22;206;48.782;9.252;2023-04-03T01:25:29;6.40;34.10
439;DHT22;206;48.782;9.252;2023-04-03T01:27:55;6.40;34.30
439;DHT22;206;48.782;9.252;2023-04-03T01:30:25;6.50;33.70
439;DHT22;206;48.782;9.252;2023-04-03T01:32:53;6.50;33.30
439;DHT22;206;48.782;9.252;2023-04-03T01:35:18;6.60;33.30
439;DHT22;206;48.782;9.252;2023-04-03T01:37:44;6.60;33.00
439;DHT22;206;48.782;9.252;2023-04-03T01:40:10;6.60;33.00
439;DHT22;206;48.782;9.252;2023-04-03T01:42:35;6.50;33.10
439;DHT22;206;48.782;9.252;2023-04-03T01:45:01;6.50;34.10
439;DHT22;206;48.782;9.252;2023-04-03T01:47:27;6.50;33.20
439;DHT22;206;48.782;9.252;2023-04-03T01:49:52;6.50;33.10
439;DHT22;206;48.782;9.252;2023-04-03T01:52:18;6.60;32.90
439;DHT22;206;48.782;9.252;2023-04-03T01:54:43;6.60;33.00
439;DHT22;206;48.782;9.252;2023-04-03T01:57:09;6.60;32.80
439;DHT22;206;48.782;9.252;2023-04-03T01:59:35;6.60;32.30
439;DHT22;206;48.782;9.252;2023-04-03T02:02:01;6.60;32.30
439;DHT22;206;48.782;9.252;2023-04-03T02:04:26;6.60;32.00
439;DHT22;206;48.782;9.252;2023-04-03T02:06:52;6.50;32.00
439;DHT22;206;48.782;9.252;2023-04-03T02:09:18;6.50;32.10
439;DHT22;206;48.782;9.252;2023-04-03T02:11:43;6.40;32.90
439;DHT22;206;48.782;9.252;2023-04-03T02:14:09;6.40;33.10
439;DHT22;206;48.782;9.252;2023-04-03T02:16:35;6.40;33.30
439;DHT22;206;48.782;9.252;2023-04-03T02:19:00;6.30;33.60
439;DHT22;206;48.782;9.252;2023-04-03T02:21:26;6.20;33.80
439;DHT22;206;48.782;9.252;2023-04-03T02:23:51;6.30;33.90
439;DHT22;206;48.782;9.252;2023-04-03T02:26:17;6.30;34.30
439;DHT22;206;48.782;9.252;2023-04-03T02:28:43;6.30;34.50
439;DHT22;206;48.782;9.252;2023-04-03T02:31:09;6.40;34.60
439;DHT22;206;48.782;9.252;2023-04-03T02:33:36;6.40;34.30
439;DHT22;206;48.782;9.252;2023-04-03T02:36:03;6.50;34.00
439;DHT22;206;48.782;9.252;2023-04-03T02:38:28;6.50;33.70
439;DHT22;206;48.782;9.252;2023-04-03T02:41:00;6.50;32.00
439;DHT22;206;48.782;9.252;2023-04-03T02:43:26;6.50;31.90
439;DHT22;206;48.782;9.252;2023-04-03T02:45:52;6.30;29.70
439;DHT22;206;48.782;9.252;2023-04-03T02:48:17;6.20;29.80
439;DHT22;206;48.782;9.252;2023-04-03T02:50:43;5.90;29.70
439;DHT22;206;48.782;9.252;2023-04-03T02:53:08;5.80;30.50
439;DHT22;206;48.782;9.252;2023-04-03T02:55:34;5.70;30.70
439;DHT22;206;48.782;9.252;2023-04-03T02:58:00;5.50;31.10
439;DHT22;206;48.782;9.252;2023-04-03T03:00:25;5.60;31.30
439;DHT22;206;48.782;9.252;2023-04-03T03:02:51;5.50;31.30
439;DHT22;206;48.782;9.252;2023-04-03T03:05:16;5.40;32.70
439;DHT22;206;48.782;9.252;2023-04-03T03:07:42;5.30;32.80
439;DHT22;206;48.782;9.252;2023-04-03T03:10:08;5.40;33.20
439;DHT22;206;48.782;9.252;2023-04-03T03:12:33;5.50;32.60
439;DHT22;206;48.782;9.252;2023-04-03T03:14:59;5.60;33.00
439;DHT22;206;48.782;9.252;2023-04-03T03:17:25;5.60;32.80
439;DHT22;206;48.782;9.252;2023-04-03T03:19:50;5.70;33.10
439;DHT22;206;48.782;9.252;2023-04-03T03:22:16;5.60;31.20
439;DHT22;206;48.782;9.252;2023-04-03T03:24:42;5.70;32.20
439;DHT22;206;48.782;9.252;2023-04-03T03:27:07;5.80;32.00
439;DHT22;206;48.782;9.252;2023-04-03T03:29:33;5.70;31.90
439;DHT22;206;48.782;9.252;2023-04-03T03:31:58;5.70;31.30
439;DHT22;206;48.782;9.252;2023-04-03T03:34:24;5.80;31.40
439;DHT22;206;48.782;9.252;2023-04-03T03:36:50;5.70;31.80
439;DHT22;206;48.782;9.252;2023-04-03T03:39:15;5.50;31.60
439;DHT22;206;48.782;9.252;2023-04-03T03:41:41;5.50;31.70
439;DHT22;206;48.782;9.252;2023-04-03T03:44:06;5.50;31.40
439;DHT22;206;48.782;9.252;2023-04-03T03:46:32;5.50;32.00
439;DHT22;206;48.782;9.252;2023-04-03T03:48:58;5.50;31.80
439;DHT22;206;48.782;9.252;2023-04-03T03:51:23;5.50;32.20
439;DHT22;206;48.782;9.252;2023-04-03T03:53:49;5.50;32.30
439;DHT22;206;48.782;9.252;2023-04-03T03:56:15;5.40;32.80
439;DHT22;206;48.782;9.252;2023-04-03T03:58:40;5.60;32.40
439;DHT22;206;48.782;9.252;2023-04-03T04:01:06;5.60;32.50
439;DHT22;206;48.782;9.252;2023-04-03T04:03:32;5.60;32.10
439;DHT22;206;48.782;9.252;2023-04-03T04:05:58;5.60;32.10
439;DHT22;206;48.782;9.252;2023-04-03T04:08:24;5.70;31.20
439;DHT22;206;48.782;9.252;2023-04-03T04:10:50;5.60;31.20
439;DHT22;206;48.782;9.252;2023-04-03T04:13:16;5.70;31.20
439;DHT22;206;48.782;9.252;2023-04-03T04:15:42;5.70;31.20
439;DHT22;206;48.782;9.252;2023-04-03T04:18:08;5.80;31.30
439;DHT22;206;48.782;9.252;2023-04-03T04:20:34;5.80;30.10
439;DHT22;206;48.782;9.252;2023-04-03T04:22:59;5.80;30.40
439;DHT22;206;48.782;9.252;2023-04-03T04:25:25;5.90;30.20
439;DHT22;206;48.782;9.252;2023-04-03T04:27:50;5.90;29.80
439;DHT22;206;48.782;9.252;2023-04-03T04:30:16;5.90;29.90
439;DHT22;206;48.782;9.252;2023-04-03T04:32:42;5.90;28.70
439;DHT22;206;48.782;9.252;2023-04-03T04:35:07;5.80;29.60
439;DHT22;206;48.782;9.252;2023-04-03T04:37:33;5.80;29.10
439;DHT22;206;48.782;9.252;2023-04-03T04:39:59;5.80;29.50
439;DHT22;206;48.782;9.252;2023-04-03T04:42:25;5.80;29.30
439;DHT22;206;48.782;9.252;2023-04-03T04:44:50;5.90;29.00
439;DHT22;206;48.782;9.252;2023-04-03T04:47:16;5.90;28.90
439;DHT22;206;48.782;9.252;2023-04-03T04:49:42;5.90;28.10
439;DHT22;206;48.782;9.252;2023-04-03T04:52:07;6.00;28.10
439;DHT22;206;48.782;9.252;2023-04-03T04:54:33;6.10;27.80
439;DHT22;206;48.782;9.252;2023-04-03T04:56:59;6.10;27.40
439;DHT22;206;48.782;9.252;2023-04-03T04:59:24;6.20;27.50
439;DHT22;206;48.782;9.252;2023-04-03T05:01:50;6.30;27.30
439;DHT22;206;48.782;9.252;2023-04-03T05:04:17;6.30;27.30
439;DHT22;206;48.782;9.252;2023-04-03T05:06:43;6.30;27.10
439;DHT22;206;48.782;9.252;2023-04-03T05:09:08;6.30;26.80
439;DHT22;206;48.782;9.252;2023-04-03T05:11:35;6.40;27.00
439;DHT22;206;48.782;9.252;2023-04-03T05:14:01;6.30;26.60
439;DHT22;206;48.782;9.252;2023-04-03T05:16:26;6.40;26.80
439;DHT22;206;48.782;9.252;2023-04-03T05:18:52;6.50;26.90
439;DHT22;206;48.782;9.252;2023-04-03T05:21:18;6.60;26.60
439;DHT22;206;48.782;9.252;2023-04-03T05:23:43;6.60;26.40
439;DHT22;206;48.782;9.252;2023-04-03T05:26:09;6.50;26.40
439;DHT22;206;48.782;9.252;2023-04-03T05:28:35;6.20;25.90
439;DHT22;206;48.782;9.252;2023-04-03T05:31:01;6.20;27.00
439;DHT22;206;48.782;9.252;2023-04-03T05:33:27;6.30;27.20
439;DHT22;206;48.782;9.252;2023-04-03T05:35:53;6.40;27.60
439;DHT22;206;48.782;9.252;2023-04-03T05:38:19;6.40;27.70
439;DHT22;206;48.782;9.252;2023-04-03T05:40:45;6.50;27.70
439;DHT22;206;48.782;9.252;2023-04-03T05:43:11;6.40;27.90
439;DHT22;206;48.782;9.252;2023-04-03T05:45:36;6.40;28.10
439;DHT22;206;48.782;9.252;2023-04-03T05:48:02;6.20;28.50
439;DHT22;206;48.782;9.252;2023-04-03T05:50:28;6.30;28.50
439;DHT22;206;48.782;9.252;2023-04-03T05:52:56;6.20;29.10
439;DHT22;206;48.782;9.252;2023-04-03T05:55:22;6.20;29.00
439;DHT22;206;48.782;9.252;2023-04-03T05:57:48;6.30;29.20
439;DHT22;206;48.782;9.252;2023-04-03T06:00:14;6.40;29.30
439;DHT22;206;48.782;9.252;2023-04-03T06:02:43;6.40;28.70
439;DHT22;206;48.782;9.252;2023-04-03T06:05:09;6.50;28.30
439;DHT22;206;48.782;9.252;2023-04-03T06:07:36;6.60;27.70
439;DHT22;206;48.782;9.252;2023-04-03T06:10:03;6.80;27.90
439;DHT22;206;48.782;9.252;2023-04-03T06:12:29;6.90;27.30
439;DHT22;206;48.782;9.252;2023-04-03T06:14:55;7.10;26.20
439;DHT22;206;48.782;9.252;2023-04-03T06:17:21;7.00;26.50
439;DHT22;206;48.782;9.252;2023-04-03T06:19:47;7.00;26.50
439;DHT22;206;48.782;9.252;2023-04-03T06:22:13;7.00;26.20
439;DHT22;206;48.782;9.252;2023-04-03T06:24:38;7.10;26.50
439;DHT22;206;48.782;9.252;2023-04-03T06:27:04;7.20;26.20
439;DHT22;206;48.782;9.252;2023-04-03T06:29:30;7.20;26.00
439;DHT22;206;48.782;9.252;2023-04-03T06:31:56;7.00;25.50
439;DHT22;206;48.782;9.252;2023-04-03T06:34:21;6.50;26.90
439;DHT22;206;48.782;9.252;2023-04-03T06:36:47;6.70;27.20
439;DHT22;206;48.782;9.252;2023-04-03T06:39:16;6.70;26.60
439;DHT22;206;48.782;9.252;2023-04-03T06:41:43;6.70;26.30
439;DHT22;206;48.782;9.252;2023-04-03T06:44:08;6.90;26.50
439;DHT22;206;48.782;9.252;2023-04-03T06:46:37;6.80;26.80
439;DHT22;206;48.782;9.252;2023-04-03T06:49:04;6.60;27.70
439;DHT22;206;48.782;9.252;2023-04-03T06:51:33;6.60;27.10
439;DHT22;206;48.782;9.252;2023-04-03T06:53:59;6.50;27.50
439;DHT22;206;48.782;9.252;2023-04-03T06:56:26;6.50;26.90
439;DHT22;206;48.782;9.252;2023-04-03T06:58:53;6.60;27.70
439;DHT22;206;48.782;9.252;2023-04-03T07:01:20;6.80;27.40
439;DHT22;206;48.782;9.252;2023-04-03T07:03:47;6.70;28.90
439;DHT22;206;48.782;9.252;2023-04-03T07:06:14;6.80;27.20
439;DHT22;206;48.782;9.252;2023-04-03T07:08:40;7.00;26.90
439;DHT22;206;48.782;9.252;2023-04-03T07:11:07;7.10;26.60
439;DHT22;206;48.782;9.252;2023-04-03T07:13:34;6.80;26.80
439;DHT22;206;48.782;9.252;2023-04-03T07:16:00;6.80;27.10
439;DHT22;206;48.782;9.252;2023-04-03T07:18:25;6.80;26.80
439;DHT22;206;48.782;9.252;2023-04-03T07:20:51;7.00;27.20
439;DHT22;206;48.782;9.252;2023-04-03T07:23:18;7.10;27.10
439;DHT22;206;48.782;9.252;2023-04-03T07:25:47;7.30;26.70
439;DHT22;206;48.782;9.252;2023-04-03T07:28:14;7.40;26.00
439;DHT22;206;48.782;9.252;2023-04-03T07:30:48;7.30;26.10
439;DHT22;206;48.782;9.252;2023-04-03T07:33:15;7.20;26.50
439;DHT22;206;48.782;9.252;2023-04-03T07:35:42;7.60;26.20
439;DHT22;206;48.782;9.252;2023-04-03T07:38:08;7.60;24.90
439;DHT22;206;48.782;9.252;2023-04-03T07:40:34;7.10;26.30
439;DHT22;206;48.782;9.252;2023-04-03T07:43:00;7.10;26.20
439;DHT22;206;48.782;9.252;2023-04-03T07:45:26;7.20;26.20
439;DHT22;206;48.782;9.252;2023-04-03T07:47:53;7.10;26.80
439;DHT22;206;48.782;9.252;2023-04-03T07:50:18;7.00;26.50
439;DHT22;206;48.782;9.252;2023-04-03T07:52:44;7.00;27.00
439;DHT22;206;48.782;9.252;2023-04-03T07:55:11;7.10;26.60
439;DHT22;206;48.782;9.252;2023-04-03T07:57:36;6.80;26.60
439;DHT22;206;48.782;9.252;2023-04-03T08:00:04;6.90;27.70
439;DHT22;206;48.782;9.252;2023-04-03T08:02:30;7.00;27.40
439;DHT22;206;48.782;9.252;2023-04-03T08:04:58;7.00;27.30
439;DHT22;206;48.782;9.252;2023-04-03T08:07:23;7.10;26.80
439;DHT22;206;48.782;9.252;2023-04-03T08:09:49;7.00;26.80
439;DHT22;206;48.782;9.252;2023-04-03T08:12:16;7.10;26.70
439;DHT22;206;48.782;9.252;2023-04-03T08:14:41;7.10;26.20
439;DHT22;206;48.782;9.252;2023-04-03T08:17:08;7.30;26.00
439;DHT22;206;48.782;9.252;2023-04-03T08:19:39;7.20;26.00
439;DHT22;206;48.782;9.252;2023-04-03T08:22:06;7.40;26.30
439;DHT22;206;48.782;9.252;2023-04-03T08:24:32;7.60;25.70
439;DHT22;206;48.782;9.252;2023-04-03T08:26:58;7.80;25.60
439;DHT22;206;48.782;9.252;2023-04-03T08:29:24;7.60;25.60
439;DHT22;206;48.782;9.252;2023-04-03T08:31:50;7.90;24.80
439;DHT22;206;48.782;9.252;2023-04-03T08:34:16;8.00;25.00
439;DHT22;206;48.782;9.252;2023-04-03T08:36:42;8.10;24.70
439;DHT22;206;48.782;9.252;2023-04-03T08:39:08;8.40;24.90
439;DHT22;206;48.782;9.252;2023-04-03T08:41:41;8.70;25.10
439;DHT22;206;48.782;9.252;2023-04-03T08:44:44;8.90;23.90
439;DHT22;206;48.782;9.252;2023-04-03T08:47:24;8.80;22.70
439;DHT22;206;48.782;9.252;2023-04-03T08:49:59;8.50;23.50
439;DHT22;206;48.782;9.252;2023-04-03T08:52:45;8.50;24.30
439;DHT22;206;48.782;9.252;2023-04-03T08:58:02;8.50;23.80
439;DHT22;206;48.782;9.252;2023-04-03T09:00:32;8.40;24.10
439;DHT22;206;48.782;9.252;2023-04-03T09:03:00;8.20;24.80
439;DHT22;206;48.782;9.252;2023-04-03T09:08:21;8.70;23.20
439;DHT22;206;48.782;9.252;2023-04-03T09:10:49;8.50;23.20
439;DHT22;206;48.782;9.252;2023-04-03T09:22:26;8.40;23.70
439;DHT22;206;48.782;9.252;2023-04-03T09:25:02;8.50;23.10
439;DHT22;206;48.782;9.252;2023-04-03T09:27:31;8.70;22.70
439;DHT22;206;48.782;9.252;2023-04-03T09:29:57;8.80;22.10
439;DHT22;206;48.782;9.252;2023-04-03T09:32:34;8.50;22.60
439;DHT22;206;48.782;9.252;2023-04-03T09:37:45;8.30;23.60
439;DHT22;206;48.782;9.252;2023-04-03T09:42:56;8.60;23.40
439;DHT22;206;48.782;9.252;2023-04-03T09:45:34;8.70;22.60
439;DHT22;206;48.782;9.252;2023-04-03T09:53:37;8.80;22.40
439;DHT22;206;48.782;9.252;2023-04-03T09:58:47;8.70;22.60
439;DHT22;206;48.782;9.252;2023-04-03T10:01:33;8.50;21.40
439;DHT22;206;48.782;9.252;2023-04-03T10:06:35;8.20;22.70
439;DHT22;206;48.782;9.252;2023-04-03T10:09:04;8.40;21.80
439;DHT22;206;48.782;9.252;2023-04-03T10:11:30;8.50;22.20
439;DHT22;206;48.782;9.252;2023-04-03T10:14:00;8.50;23.00
439;DHT22;206;48.782;9.252;2023-04-03T10:16:52;8.90;22.40
439;DHT22;206;48.782;9.252;2023-04-03T10:19:39;9.50;21.50
439;DHT22;206;48.782;9.252;2023-04-03T10:22:20;9.10;20.50
439;DHT22;206;48.782;9.252;2023-04-03T10:25:02;9.10;21.10
439;DHT22;206;48.782;9.252;2023-04-03T10:30:19;8.70;22.00
439;DHT22;206;48.782;9.252;2023-04-03T10:38:39;8.80;21.90
439;DHT22;206;48.782;9.252;2023-04-03T10:41:19;9.00;21.40
439;DHT22;206;48.782;9.252;2023-04-03T10:44:12;9.00;20.50
439;DHT22;206;48.782;9.252;2023-04-03T10:46:49;9.20;20.30
439;DHT22;206;48.782;9.252;2023-04-03T10:49:26;9.40;20.30
439;DHT22;206;48.782;9.252;2023-04-03T10:52:02;9.20;20.00
439;DHT22;206;48.782;9.252;2023-04-03T10:57:23;9.00;20.60
439;DHT22;206;48.782;9.252;2023-04-03T10:59:59;9.00;19.80
439;DHT22;206;48.782;9.252;2023-04-03T11:02:33;9.00;19.50
439;DHT22;206;48.782;9.252;2023-04-03T11:05:07;8.90;19.00
439;DHT22;206;48.782;9.252;2023-04-03T11:07:42;9.10;18.60
439;DHT22;206;48.782;9.252;2023-04-03T11:10:23;8.90;18.10
439;DHT22;206;48.782;9.252;2023-04-03T11:13:02;8.60;18.90
439;DHT22;206;48.782;9.252;2023-04-03T11:15:32;8.80;19.20
439;DHT22;206;48.782;9.252;2023-04-03T11:18:06;8.80;17.20
439;DHT22;206;48.782;9.252;2023-04-03T11:20:35;8.90;17.10
439;DHT22;206;48.782;9.252;2023-04-03T11:25:30;8.90;17.10
439;DHT22;206;48.782;9.252;2023-04-03T11:28:02;9.00;16.50
439;DHT22;206;48.782;9.252;2023-04-03T11:36:12;9.20;14.40
439;DHT22;206;48.782;9.252;2023-04-03T11:38:44;9.30;15.30
439;DHT22;206;48.782;9.252;2023-04-03T11:41:13;9.50;15.70
439;DHT22;206;48.782;9.252;2023-04-03T11:43:43;9.30;17.30
439;DHT22;206;48.782;9.252;2023-04-03T11:46:20;9.10;18.00
439;DHT22;206;48.782;9.252;2023-04-03T11:48:48;9.10;18.70
439;DHT22;206;48.782;9.252;2023-04-03T11:53:43;9.10;18.20
439;DHT22;206;48.782;9.252;2023-04-03T12:01:53;9.30;17.40
439;DHT22;206;48.782;9.252;2023-04-03T12:04:22;9.10;17.90
439;DHT22;206;48.782;9.252;2023-04-03T12:06:50;8.80;19.50
439;DHT22;206;48.782;9.252;2023-04-03T12:09:24;8.90;19.20
439;DHT22;206;48.782;9.252;2023-04-03T12:11:50;9.10;18.70
439;DHT22;206;48.782;9.252;2023-04-03T12:14:16;8.80;18.50
439;DHT22;206;48.782;9.252;2023-04-03T12:16:46;8.90;18.60
439;DHT22;206;48.782;9.252;2023-04-03T12:19:37;9.20;18.20
439;DHT22;206;48.782;9.252;2023-04-03T12:22:09;9.20;18.80
439;DHT22;206;48.782;9.252;2023-04-03T12:24:37;9.50;18.00
439;DHT22;206;48.782;9.252;2023-04-03T12:29:59;10.00;15.20
439;DHT22;206;48.782;9.252;2023-04-03T12:44:53;9.10;14.60
439;DHT22;206;48.782;9.252;2023-04-03T12:47:33;9.10;15.00
439;DHT22;206;48.782;9.252;2023-04-03T12:50:13;9.10;15.30
439;DHT22;206;48.782;9.252;2023-04-03T12:52:45;9.30;15.70
439;DHT22;206;48.782;9.252;2023-04-03T12:55:18;9.40;16.10
439;DHT22;206;48.782;9.252;2023-04-03T12:57:44;9.30;17.30
439;DHT22;206;48.782;9.252;2023-04-03T13:00:22;9.60;16.40
439;DHT22;206;48.782;9.252;2023-04-03T13:02:53;10.10;15.50
439;DHT22;206;48.782;9.252;2023-04-03T13:05:20;10.00;14.90
439;DHT22;206;48.782;9.252;2023-04-03T13:08:03;9.90;15.20
439;DHT22;206;48.782;9.252;2023-04-03T13:10:31;10.00;14.50
439;DHT22;206;48.782;9.252;2023-04-03T13:13:06;10.10;14.40
439;DHT22;206;48.782;9.252;2023-04-03T13:15:44;9.90;15.00
439;DHT22;206;48.782;9.252;2023-04-03T13:20:52;9.80;13.50
439;DHT22;206;48.782;9.252;2023-04-03T13:23:19;9.60;14.50
439;DHT22;206;48.782;9.252;2023-04-03T13:25:46;9.60;14.40
439;DHT22;206;48.782;9.252;2023-04-03T13:28:17;9.40;15.20
439;DHT22;206;48.782;9.252;2023-04-03T13:36:32;9.90;14.20
439;DHT22;206;48.782;9.252;2023-04-03T13:39:06;10.30;13.10
439;DHT22;206;48.782;9.252;2023-04-03T13:41:49;10.50;13.20
439;DHT22;206;48.782;9.252;2023-04-03T13:46:47;10.10;11.90
439;DHT22;206;48.782;9.252;2023-04-03T13:51:58;10.00;11.10
439;DHT22;206;48.782;9.252;2023-04-03T13:54:38;10.10;11.90
439;DHT22;206;48.782;9.252;2023-04-03T13:57:13;10.30;12.60
439;DHT22;206;48.782;9.252;2023-04-03T13:59:39;10.40;12.70
439;DHT22;206;48.782;9.252;2023-04-03T14:02:18;10.50;12.40
439;DHT22;206;48.782;9.252;2023-04-03T14:04:48;10.30;12.60
439;DHT22;206;48.782;9.252;2023-04-03T14:07:15;10.40;12.30
439;DHT22;206;48.782;9.252;2023-04-03T14:09:42;10.50;12.50
439;DHT22;206;48.782;9.252;2023-04-03T14:12:17;10.30;12.10
439;DHT22;206;48.782;9.252;2023-04-03T14:14:43;10.00;12.80
439;DHT22;206;48.782;9.252;2023-04-03T14:17:22;10.20;12.70
439;DHT22;206;48.782;9.252;2023-04-03T14:19:50;10.10;12.90
439;DHT22;206;48.782;9.252;2023-04-03T14:22:25;10.00;13.00
439;DHT22;206;48.782;9.252;2023-04-03T14:24:51;10.00;13.30
439;DHT22;206;48.782;9.252;2023-04-03T14:27:29;10.00;12.10
439;DHT22;206;48.782;9.252;2023-04-03T14:29:57;9.70;12.30
439;DHT22;206;48.782;9.252;2023-04-03T14:32:24;9.90;13.40
439;DHT22;206;48.782;9.252;2023-04-03T14:34:51;10.00;12.30
439;DHT22;206;48.782;9.252;2023-04-03T14:37:28;10.20;12.20
439;DHT22;206;48.782;9.252;2023-04-03T14:39:56;9.80;12.70
439;DHT22;206;48.782;9.252;2023-04-03T14:42:28;9.50;13.30
439;DHT22;206;48.782;9.252;2023-04-03T14:44:53;9.30;13.50
439;DHT22;206;48.782;9.252;2023-04-03T14:47:22;8.90;13.80
439;DHT22;206;48.782;9.252;2023-04-03T14:49:49;9.20;14.10
439;DHT22;206;48.782;9.252;2023-04-03T14:52:25;9.50;13.30
439;DHT22;206;48.782;9.252;2023-04-03T14:54:52;9.40;13.90
439;DHT22;206;48.782;9.252;2023-04-03T14:57:18;9.50;12.90
439;DHT22;206;48.782;9.252;2023-04-03T14:59:45;9.80;13.20
439;DHT22;206;48.782;9.252;2023-04-03T15:02:34;10.00;12.10
439;DHT22;206;48.782;9.252;2023-04-03T15:05:03;10.00;11.70
439;DHT22;206;48.782;9.252;2023-04-03T15:07:32;9.90;12.50
439;DHT22;206;48.782;9.252;2023-04-03T15:10:01;9.60;12.90
439;DHT22;206;48.782;9.252;2023-04-03T15:12:27;9.50;12.50
439;DHT22;206;48.782;9.252;2023-04-03T15:14:52;9.70;12.80
439;DHT22;206;48.782;9.252;2023-04-03T15:17:21;9.70;11.80
439;DHT22;206;48.782;9.252;2023-04-03T15:19:46;9.70;11.10
439;DHT22;206;48.782;9.252;2023-04-03T15:22:18;9.50;11.60
439;DHT22;206;48.782;9.252;2023-04-03T15:24:45;9.50;11.50
439;DHT22;206;48.782;9.252;2023-04-03T15:27:12;9.40;11.20
439;DHT22;206;48.782;9.252;2023-04-03T15:29:40;9.10;11.30
439;DHT22;206;48.782;9.252;2023-04-03T15:32:09;9.20;12.20
439;DHT22;206;48.782;9.252;2023-04-03T15:34:35;8.90;12.40
439;DHT22;206;48.782;9.252;2023-04-03T15:37:01;8.70;12.40
439;DHT22;206;48.782;9.252;2023-04-03T15:39:27;8.50;12.90
439;DHT22;206;48.782;9.252;2023-04-03T15:41:53;8.40;13.50
439;DHT22;206;48.782;9.252;2023-04-03T15:44:20;8.30;14.30
439;DHT22;206;48.782;9.252;2023-04-03T15:46:46;8.50;14.40
439;DHT22;206;48.782;9.252;2023-04-03T15:49:14;8.60;12.90
439;DHT22;206;48.782;9.252;2023-04-03T15:51:39;8.40;12.90
439;DHT22;206;48.782;9.252;2023-04-03T15:54:05;8.50;13.10
439;DHT22;206;48.782;9.252;2023-04-03T15:56:31;8.60;12.70
439;DHT22;206;48.782;9.252;2023-04-03T15:58:56;8.60;12.90
439;DHT22;206;48.782;9.252;2023-04-03T16:01:22;8.70;12.80
439;DHT22;206;48.782;9.252;2023-04-03T16:03:47;8.90;12.80
439;DHT22;206;48.782;9.252;2023-04-03T16:06:15;9.00;13.00
439;DHT22;206;48.782;9.252;2023-04-03T16:08:41;9.10;11.90
439;DHT22;206;48.782;9.252;2023-04-03T16:11:08;9.10;11.20
439;DHT22;206;48.782;9.252;2023-04-03T16:13:34;8.80;10.60
439;DHT22;206;48.782;9.252;2023-04-03T16:16:00;8.70;11.00
439;DHT22;206;48.782;9.252;2023-04-03T16:18:34;8.60;11.20
439;DHT22;206;48.782;9.252;2023-04-03T16:21:00;8.50;11.30
439;DHT22;206;48.782;9.252;2023-04-03T16:23:26;8.60;11.00
439;DHT22;206;48.782;9.252;2023-04-03T16:25:52;8.70;11.40
439;DHT22;206;48.782;9.252;2023-04-03T16:28:18;8.60;12.00
439;DHT22;206;48.782;9.252;2023-04-03T16:30:45;8.80;12.30
439;DHT22;206;48.782;9.252;2023-04-03T16:33:12;8.80;12.00
439;DHT22;206;48.782;9.252;2023-04-03T16:35:38;9.00;11.00
439;DHT22;206;48.782;9.252;2023-04-03T16:38:04;9.20;10.70
439;DHT22;206;48.782;9.252;2023-04-03T16:40:29;9.30;10.90
439;DHT22;206;48.782;9.252;2023-04-03T16:42:55;9.40;11.00
439;DHT22;206;48.782;9.252;2023-04-03T16:45:21;9.40;11.00
439;DHT22;206;48.782;9.252;2023-04-03T16:47:46;8.90;11.70
439;DHT22;206;48.782;9.252;2023-04-03T16:50:12;8.90;11.70
439;DHT22;206;48.782;9.252;2023-04-03T16:52:38;8.70;11.60
439;DHT22;206;48.782;9.252;2023-04-03T16:55:04;8.80;11.50
439;DHT22;206;48.782;9.252;2023-04-03T16:57:30;8.90;11.50
439;DHT22;206;48.782;9.252;2023-04-03T16:59:56;8.90;11.60
439;DHT22;206;48.782;9.252;2023-04-03T17:02:22;8.80;11.90
439;DHT22;206;48.782;9.252;2023-04-03T17:04:52;8.80;12.20
439;DHT22;206;48.782;9.252;2023-04-03T17:07:23;8.90;12.50
439;DHT22;206;48.782;9.252;2023-04-03T17:09:49;8.90;12.40
439;DHT22;206;48.782;9.252;2023-04-03T17:12:15;9.00;12.30
439;DHT22;206;48.782;9.252;2023-04-03T17:14:41;9.00;12.70
439;DHT22;206;48.782;9.252;2023-04-03T17:17:07;8.80;12.80
439;DHT22;206;48.782;9.252;2023-04-03T17:19:34;8.80;12.60
439;DHT22;206;48.782;9.252;2023-04-03T17:22:00;8.60;12.70
439;DHT22;206;48.782;9.252;2023-04-03T17:24:27;8.60;12.30
439;DHT22;206;48.782;9.252;2023-04-03T17:26:52;8.60;12.70
439;DHT22;206;48.782;9.252;2023-04-03T17:29:18;8.50;12.60
439;DHT22;206;48.782;9.252;2023-04-03T17:31:44;8.60;12.90
439;DHT22;206;48.782;9.252;2023-04-03T17:34:09;8.60;13.30
439;DHT22;206;48.782;9.252;2023-04-03T17:36:38;8.60;13.20
439;DHT22;206;48.782;9.252;2023-04-03T17:39:04;8.50;13.30
439;DHT22;206;48.782;9.252;2023-04-03T17:41:30;8.50;13.30
439;DHT22;206;48.782;9.252;2023-04-03T17:43:56;8.40;13.20
439;DHT22;206;48.782;9.252;2023-04-03T17:46:23;8.20;13.30
439;DHT22;206;48.782;9.252;2023-04-03T17:48:49;8.20;13.10
439;DHT22;206;48.782;9.252;2023-04-03T17:51:18;8.20;13.50
439;DHT22;206;48.782;9.252;2023-04-03T17:53:45;8.10;13.30
439;DHT22;206;48.782;9.252;2023-04-03T17:56:13;8.10;13.40
439;DHT22;206;48.782;9.252;2023-04-03T17:58:39;8.20;13.50
439;DHT22;206;48.782;9.252;2023-04-03T18:01:16;8.20;13.40
439;DHT22;206;48.782;9.252;2023-04-03T18:03:43;8.30;13.90
439;DHT22;206;48.782;9.252;2023-04-03T18:06:17;8.30;14.20
439;DHT22;206;48.782;9.252;2023-04-03T18:08:47;8.30;14.10
439;DHT22;206;48.782;9.252;2023-04-03T18:11:14;8.20;14.00
439;DHT22;206;48.782;9.252;2023-04-03T18:13:41;8.20;13.80
439;DHT22;206;48.782;9.252;2023-04-03T18:16:08;8.30;14.10
439;DHT22;206;48.782;9.252;2023-04-03T18:18:34;8.20;13.80
439;DHT22;206;48.782;9.252;2023-04-03T18:21:00;8.10;14.10
439;DHT22;206;48.782;9.252;2023-04-03T18:23:28;8.20;14.50
439;DHT22;206;48.782;9.252;2023-04-03T18:25:55;8.30;13.80
439;DHT22;206;48.782;9.252;2023-04-03T18:28:21;8.10;13.40
439;DHT22;206;48.782;9.252;2023-04-03T18:30:47;7.90;14.80
439;DHT22;206;48.782;9.252;2023-04-03T18:33:13;7.90;14.20